Clarksburg, New Jersey
Current Conditions -  °F | °C
As of 4:58 AM on Thursday 23 Oct 2014 (Local Time) from KWRI Reporting Station
Overcast Overcast  
Wind Chill: 52°   Ceiling: 2200
Heat Index: 52°   Visibility: 10mi
Dew Point: 47°   Wind: 15mph
Humidity: 84%   Direction: 330°NNW
Pressure: 29.7"   Gusts: 24mph
Location:  40.19°N, 74.44°W
Report Text: KWRI 230858Z AUTO 33013G21KT 10SM OVC022 11/08 A2970 RMK AO2 SLP061 60001 T01100084 53000
Loading
Personal Weather Stations






























Interactive Weather Map
Tropical Storm Tracking
New forecast layout! Learn more

10-Day Weather Forecast

Advertisements
Track Severe Weather on mobile